sensor_id;sensor_type;location;lat;lon;timestamp;P1;durP1;ratioP1;P2;durP2;ratioP2
20397;SDS011;10358;49.590;11.030;2023-06-14T00:00:38;7.68;;;4.30;;
20397;SDS011;10358;49.590;11.030;2023-06-14T00:03:08;6.03;;;4.20;;
20397;SDS011;10358;49.590;11.030;2023-06-14T00:05:35;6.60;;;4.25;;
20397;SDS011;10358;49.590;11.030;2023-06-14T00:08:06;6.65;;;3.72;;
20397;SDS011;10358;49.590;11.030;2023-06-14T00:10:33;8.50;;;4.07;;
20397;SDS011;10358;49.590;11.030;2023-06-14T00:13:00;5.90;;;4.00;;
20397;SDS011;10358;49.590;11.030;2023-06-14T00:15:27;6.93;;;4.07;;
20397;SDS011;10358;49.590;11.030;2023-06-14T00:17:53;5.95;;;3.83;;
20397;SDS011;10358;49.590;11.030;2023-06-14T00:20:20;6.32;;;4.47;;
20397;SDS011;10358;49.590;11.030;2023-06-14T00:22:45;6.57;;;4.38;;
20397;SDS011;10358;49.590;11.030;2023-06-14T00:25:13;6.72;;;4.15;;
20397;SDS011;10358;49.590;11.030;2023-06-14T00:27:38;7.60;;;4.70;;
20397;SDS011;10358;49.590;11.030;2023-06-14T00:30:04;7.22;;;4.28;;
20397;SDS011;10358;49.590;11.030;2023-06-14T00:32:30;8.23;;;4.43;;
20397;SDS011;10358;49.590;11.030;2023-06-14T00:34:55;7.88;;;4.30;;
20397;SDS011;10358;49.590;11.030;2023-06-14T00:37:21;6.00;;;3.95;;
20397;SDS011;10358;49.590;11.030;2023-06-14T00:39:47;7.63;;;4.18;;
20397;SDS011;10358;49.590;11.030;2023-06-14T00:42:22;6.97;;;4.35;;
20397;SDS011;10358;49.590;11.030;2023-06-14T00:44:51;6.53;;;4.30;;
20397;SDS011;10358;49.590;11.030;2023-06-14T00:47:17;6.10;;;4.40;;
20397;SDS011;10358;49.590;11.030;2023-06-14T00:49:44;7.38;;;4.15;;
20397;SDS011;10358;49.590;11.030;2023-06-14T00:52:10;9.00;;;4.07;;
20397;SDS011;10358;49.590;11.030;2023-06-14T00:54:37;5.50;;;3.78;;
20397;SDS011;10358;49.590;11.030;2023-06-14T00:57:03;6.05;;;3.72;;
20397;SDS011;10358;49.590;11.030;2023-06-14T00:59:29;8.25;;;4.72;;
20397;SDS011;10358;49.590;11.030;2023-06-14T01:01:55;6.78;;;4.07;;
20397;SDS011;10358;49.590;11.030;2023-06-14T01:04:21;5.95;;;3.90;;
20397;SDS011;10358;49.590;11.030;2023-06-14T01:06:54;7.35;;;3.97;;
20397;SDS011;10358;49.590;11.030;2023-06-14T01:09:43;6.20;;;3.85;;
20397;SDS011;10358;49.590;11.030;2023-06-14T01:12:38;13.00;;;3.90;;
20397;SDS011;10358;49.590;11.030;2023-06-14T01:15:13;9.48;;;5.00;;
20397;SDS011;10358;49.590;11.030;2023-06-14T01:17:40;7.13;;;3.83;;
20397;SDS011;10358;49.590;11.030;2023-06-14T01:20:10;7.18;;;4.10;;
20397;SDS011;10358;49.590;11.030;2023-06-14T01:22:47;6.65;;;3.90;;
20397;SDS011;10358;49.590;11.030;2023-06-14T01:25:16;7.70;;;3.90;;
20397;SDS011;10358;49.590;11.030;2023-06-14T01:27:45;7.05;;;3.88;;
20397;SDS011;10358;49.590;11.030;2023-06-14T01:30:15;6.73;;;3.70;;
20397;SDS011;10358;49.590;11.030;2023-06-14T01:32:42;6.95;;;3.85;;
20397;SDS011;10358;49.590;11.030;2023-06-14T01:35:08;5.97;;;3.72;;
20397;SDS011;10358;49.590;11.030;2023-06-14T01:37:34;6.15;;;4.10;;
20397;SDS011;10358;49.590;11.030;2023-06-14T01:40:01;6.97;;;4.28;;
20397;SDS011;10358;49.590;11.030;2023-06-14T01:42:28;5.32;;;3.80;;
20397;SDS011;10358;49.590;11.030;2023-06-14T01:44:55;8.93;;;4.37;;
20397;SDS011;10358;49.590;11.030;2023-06-14T01:47:21;6.07;;;3.35;;
20397;SDS011;10358;49.590;11.030;2023-06-14T01:49:47;8.27;;;4.37;;
20397;SDS011;10358;49.590;11.030;2023-06-14T01:52:12;8.60;;;4.17;;
20397;SDS011;10358;49.590;11.030;2023-06-14T01:54:38;5.37;;;3.80;;
20397;SDS011;10358;49.590;11.030;2023-06-14T01:57:08;7.38;;;3.65;;
20397;SDS011;10358;49.590;11.030;2023-06-14T01:59:34;7.55;;;3.80;;
20397;SDS011;10358;49.590;11.030;2023-06-14T02:02:00;7.47;;;3.70;;
20397;SDS011;10358;49.590;11.030;2023-06-14T02:04:27;5.60;;;4.20;;
20397;SDS011;10358;49.590;11.030;2023-06-14T02:06:52;7.90;;;4.05;;
20397;SDS011;10358;49.590;11.030;2023-06-14T02:09:18;5.60;;;3.50;;
20397;SDS011;10358;49.590;11.030;2023-06-14T02:11:43;7.83;;;3.80;;
20397;SDS011;10358;49.590;11.030;2023-06-14T02:14:09;10.48;;;4.15;;
20397;SDS011;10358;49.590;11.030;2023-06-14T02:16:37;7.93;;;3.23;;
20397;SDS011;10358;49.590;11.030;2023-06-14T02:19:04;8.27;;;3.67;;
20397;SDS011;10358;49.590;11.030;2023-06-14T02:21:30;7.47;;;3.80;;
20397;SDS011;10358;49.590;11.030;2023-06-14T02:23:55;6.80;;;3.50;;
20397;SDS011;10358;49.590;11.030;2023-06-14T02:26:21;11.33;;;3.77;;
20397;SDS011;10358;49.590;11.030;2023-06-14T02:28:50;6.50;;;3.83;;
20397;SDS011;10358;49.590;11.030;2023-06-14T02:31:16;4.28;;;3.35;;
20397;SDS011;10358;49.590;11.030;2023-06-14T02:33:41;6.40;;;3.77;;
20397;SDS011;10358;49.590;11.030;2023-06-14T02:36:07;6.17;;;3.87;;
20397;SDS011;10358;49.590;11.030;2023-06-14T02:38:32;6.97;;;4.00;;
20397;SDS011;10358;49.590;11.030;2023-06-14T02:40:58;7.53;;;3.93;;
20397;SDS011;10358;49.590;11.030;2023-06-14T02:43:25;6.03;;;4.03;;
20397;SDS011;10358;49.590;11.030;2023-06-14T02:45:50;6.00;;;4.00;;
20397;SDS011;10358;49.590;11.030;2023-06-14T02:48:17;7.80;;;4.47;;
20397;SDS011;10358;49.590;11.030;2023-06-14T02:50:42;9.47;;;4.70;;
20397;SDS011;10358;49.590;11.030;2023-06-14T02:53:08;6.53;;;4.23;;
20397;SDS011;10358;49.590;11.030;2023-06-14T02:55:33;9.70;;;5.00;;
20397;SDS011;10358;49.590;11.030;2023-06-14T02:58:04;9.70;;;5.60;;
20397;SDS011;10358;49.590;11.030;2023-06-14T03:00:30;9.17;;;5.50;;
20397;SDS011;10358;49.590;11.030;2023-06-14T03:02:56;9.47;;;4.10;;
20397;SDS011;10358;49.590;11.030;2023-06-14T03:05:22;7.97;;;4.00;;
20397;SDS011;10358;49.590;11.030;2023-06-14T03:07:48;7.37;;;3.97;;
20397;SDS011;10358;49.590;11.030;2023-06-14T03:10:15;5.53;;;4.00;;
20397;SDS011;10358;49.590;11.030;2023-06-14T03:12:41;6.13;;;4.23;;
20397;SDS011;10358;49.590;11.030;2023-06-14T03:15:07;7.30;;;3.80;;
20397;SDS011;10358;49.590;11.030;2023-06-14T03:17:34;8.43;;;4.33;;
20397;SDS011;10358;49.590;11.030;2023-06-14T03:20:00;5.17;;;3.77;;
20397;SDS011;10358;49.590;11.030;2023-06-14T03:22:26;4.80;;;3.67;;
20397;SDS011;10358;49.590;11.030;2023-06-14T03:24:52;7.33;;;3.60;;
20397;SDS011;10358;49.590;11.030;2023-06-14T03:27:19;5.13;;;3.70;;
20397;SDS011;10358;49.590;11.030;2023-06-14T03:29:44;5.47;;;4.00;;
20397;SDS011;10358;49.590;11.030;2023-06-14T03:32:10;11.23;;;4.73;;
20397;SDS011;10358;49.590;11.030;2023-06-14T03:34:36;8.10;;;4.03;;
20397;SDS011;10358;49.590;11.030;2023-06-14T03:37:03;8.97;;;5.10;;
20397;SDS011;10358;49.590;11.030;2023-06-14T03:39:29;13.17;;;8.37;;
20397;SDS011;10358;49.590;11.030;2023-06-14T03:41:55;8.27;;;5.13;;
20397;SDS011;10358;49.590;11.030;2023-06-14T03:44:21;7.37;;;4.37;;
20397;SDS011;10358;49.590;11.030;2023-06-14T03:46:46;6.33;;;4.20;;
20397;SDS011;10358;49.590;11.030;2023-06-14T03:49:12;9.63;;;4.43;;
20397;SDS011;10358;49.590;11.030;2023-06-14T03:51:38;7.17;;;4.37;;
20397;SDS011;10358;49.590;11.030;2023-06-14T03:54:05;6.13;;;4.20;;
20397;SDS011;10358;49.590;11.030;2023-06-14T03:56:31;7.57;;;4.10;;
20397;SDS011;10358;49.590;11.030;2023-06-14T03:58:56;6.10;;;4.30;;
20397;SDS011;10358;49.590;11.030;2023-06-14T04:01:22;8.03;;;4.30;;
20397;SDS011;10358;49.590;11.030;2023-06-14T04:03:52;7.20;;;4.40;;
20397;SDS011;10358;49.590;11.030;2023-06-14T04:06:17;6.43;;;4.00;;
20397;SDS011;10358;49.590;11.030;2023-06-14T04:08:44;7.03;;;4.00;;
20397;SDS011;10358;49.590;11.030;2023-06-14T04:11:10;6.67;;;4.00;;
20397;SDS011;10358;49.590;11.030;2023-06-14T04:13:36;7.10;;;4.00;;
20397;SDS011;10358;49.590;11.030;2023-06-14T04:16:04;6.97;;;3.80;;
20397;SDS011;10358;49.590;11.030;2023-06-14T04:18:30;7.83;;;4.27;;
20397;SDS011;10358;49.590;11.030;2023-06-14T04:20:55;7.43;;;4.33;;
20397;SDS011;10358;49.590;11.030;2023-06-14T04:23:21;8.30;;;4.20;;
20397;SDS011;10358;49.590;11.030;2023-06-14T04:25:47;6.47;;;4.20;;
20397;SDS011;10358;49.590;11.030;2023-06-14T04:28:14;7.63;;;4.20;;
20397;SDS011;10358;49.590;11.030;2023-06-14T04:30:40;7.17;;;4.03;;
20397;SDS011;10358;49.590;11.030;2023-06-14T04:33:07;5.77;;;4.20;;
20397;SDS011;10358;49.590;11.030;2023-06-14T04:35:32;13.07;;;6.37;;
20397;SDS011;10358;49.590;11.030;2023-06-14T04:38:00;12.70;;;6.27;;
20397;SDS011;10358;49.590;11.030;2023-06-14T04:40:29;9.23;;;4.87;;
20397;SDS011;10358;49.590;11.030;2023-06-14T04:42:55;8.77;;;5.10;;
20397;SDS011;10358;49.590;11.030;2023-06-14T04:45:20;12.83;;;5.60;;
20397;SDS011;10358;49.590;11.030;2023-06-14T04:47:47;8.93;;;4.40;;
20397;SDS011;10358;49.590;11.030;2023-06-14T04:50:18;7.13;;;4.40;;
20397;SDS011;10358;49.590;11.030;2023-06-14T04:52:45;7.23;;;4.00;;
20397;SDS011;10358;49.590;11.030;2023-06-14T04:55:16;6.30;;;3.73;;
20397;SDS011;10358;49.590;11.030;2023-06-14T04:57:44;6.57;;;3.90;;
20397;SDS011;10358;49.590;11.030;2023-06-14T05:00:09;6.43;;;4.00;;
20397;SDS011;10358;49.590;11.030;2023-06-14T05:02:36;8.03;;;4.40;;
20397;SDS011;10358;49.590;11.030;2023-06-14T05:05:02;9.70;;;4.47;;
20397;SDS011;10358;49.590;11.030;2023-06-14T05:07:29;5.35;;;3.97;;
20397;SDS011;10358;49.590;11.030;2023-06-14T05:09:55;7.17;;;4.00;;
20397;SDS011;10358;49.590;11.030;2023-06-14T05:12:20;6.18;;;4.07;;
20397;SDS011;10358;49.590;11.030;2023-06-14T05:14:46;6.72;;;4.20;;
20397;SDS011;10358;49.590;11.030;2023-06-14T05:17:11;13.40;;;7.18;;
20397;SDS011;10358;49.590;11.030;2023-06-14T05:19:37;8.60;;;4.63;;
20397;SDS011;10358;49.590;11.030;2023-06-14T05:22:03;7.53;;;4.05;;
20397;SDS011;10358;49.590;11.030;2023-06-14T05:24:29;6.57;;;4.10;;
20397;SDS011;10358;49.590;11.030;2023-06-14T05:26:55;5.70;;;3.70;;
20397;SDS011;10358;49.590;11.030;2023-06-14T05:29:21;6.70;;;3.75;;
20397;SDS011;10358;49.590;11.030;2023-06-14T05:31:47;6.53;;;3.92;;
20397;SDS011;10358;49.590;11.030;2023-06-14T05:34:13;9.18;;;4.18;;
20397;SDS011;10358;49.590;11.030;2023-06-14T05:36:38;5.05;;;3.70;;
20397;SDS011;10358;49.590;11.030;2023-06-14T05:39:04;8.57;;;4.20;;
20397;SDS011;10358;49.590;11.030;2023-06-14T05:41:30;5.57;;;3.80;;
20397;SDS011;10358;49.590;11.030;2023-06-14T05:43:56;6.60;;;3.92;;
20397;SDS011;10358;49.590;11.030;2023-06-14T05:46:22;7.32;;;4.00;;
20397;SDS011;10358;49.590;11.030;2023-06-14T05:48:54;6.65;;;3.75;;
20397;SDS011;10358;49.590;11.030;2023-06-14T05:51:20;6.07;;;4.10;;
20397;SDS011;10358;49.590;11.030;2023-06-14T05:53:48;7.97;;;3.88;;
20397;SDS011;10358;49.590;11.030;2023-06-14T05:56:15;7.93;;;4.30;;
20397;SDS011;10358;49.590;11.030;2023-06-14T05:58:43;6.95;;;3.80;;
20397;SDS011;10358;49.590;11.030;2023-06-14T06:01:08;7.95;;;3.47;;
20397;SDS011;10358;49.590;11.030;2023-06-14T06:03:34;6.57;;;3.80;;
20397;SDS011;10358;49.590;11.030;2023-06-14T06:06:00;5.25;;;3.78;;
20397;SDS011;10358;49.590;11.030;2023-06-14T06:08:26;6.22;;;4.00;;
20397;SDS011;10358;49.590;11.030;2023-06-14T06:10:52;7.65;;;3.83;;
20397;SDS011;10358;49.590;11.030;2023-06-14T06:13:17;5.65;;;3.90;;
20397;SDS011;10358;49.590;11.030;2023-06-14T06:15:43;8.40;;;3.90;;
20397;SDS011;10358;49.590;11.030;2023-06-14T06:18:09;9.07;;;4.18;;
20397;SDS011;10358;49.590;11.030;2023-06-14T06:20:35;9.38;;;4.18;;
20397;SDS011;10358;49.590;11.030;2023-06-14T06:23:01;8.32;;;4.10;;
20397;SDS011;10358;49.590;11.030;2023-06-14T06:25:27;8.45;;;3.58;;
20397;SDS011;10358;49.590;11.030;2023-06-14T06:27:53;6.13;;;3.40;;
20397;SDS011;10358;49.590;11.030;2023-06-14T06:30:21;6.22;;;3.60;;
20397;SDS011;10358;49.590;11.030;2023-06-14T06:32:46;6.10;;;3.97;;
20397;SDS011;10358;49.590;11.030;2023-06-14T06:35:12;7.47;;;3.38;;
20397;SDS011;10358;49.590;11.030;2023-06-14T06:37:38;5.57;;;3.60;;
20397;SDS011;10358;49.590;11.030;2023-06-14T06:40:04;5.00;;;3.05;;
20397;SDS011;10358;49.590;11.030;2023-06-14T06:42:31;6.47;;;3.58;;
20397;SDS011;10358;49.590;11.030;2023-06-14T06:44:57;9.45;;;3.50;;
20397;SDS011;10358;49.590;11.030;2023-06-14T06:47:23;5.25;;;3.78;;
20397;SDS011;10358;49.590;11.030;2023-06-14T06:49:48;5.07;;;3.30;;
20397;SDS011;10358;49.590;11.030;2023-06-14T06:52:14;9.48;;;3.42;;
20397;SDS011;10358;49.590;11.030;2023-06-14T06:54:40;6.15;;;3.83;;
20397;SDS011;10358;49.590;11.030;2023-06-14T06:57:05;7.80;;;3.60;;
20397;SDS011;10358;49.590;11.030;2023-06-14T06:59:31;6.70;;;3.20;;
20397;SDS011;10358;49.590;11.030;2023-06-14T07:01:57;5.72;;;3.40;;
20397;SDS011;10358;49.590;11.030;2023-06-14T07:04:23;6.40;;;3.50;;
20397;SDS011;10358;49.590;11.030;2023-06-14T07:06:49;6.25;;;3.53;;
20397;SDS011;10358;49.590;11.030;2023-06-14T07:09:15;5.72;;;3.22;;
20397;SDS011;10358;49.590;11.030;2023-06-14T07:11:41;8.18;;;3.25;;
20397;SDS011;10358;49.590;11.030;2023-06-14T07:14:08;10.43;;;3.20;;
20397;SDS011;10358;49.590;11.030;2023-06-14T07:16:34;11.30;;;3.33;;
20397;SDS011;10358;49.590;11.030;2023-06-14T07:18:59;5.75;;;3.10;;
20397;SDS011;10358;49.590;11.030;2023-06-14T07:21:26;7.30;;;3.35;;
20397;SDS011;10358;49.590;11.030;2023-06-14T07:23:55;7.55;;;3.88;;
20397;SDS011;10358;49.590;11.030;2023-06-14T07:26:21;5.82;;;3.60;;
20397;SDS011;10358;49.590;11.030;2023-06-14T07:28:47;5.68;;;3.28;;
20397;SDS011;10358;49.590;11.030;2023-06-14T07:31:14;8.30;;;3.13;;
20397;SDS011;10358;49.590;11.030;2023-06-14T07:33:40;8.85;;;3.40;;
20397;SDS011;10358;49.590;11.030;2023-06-14T07:36:07;8.77;;;3.47;;
20397;SDS011;10358;49.590;11.030;2023-06-14T07:38:33;7.20;;;3.38;;
20397;SDS011;10358;49.590;11.030;2023-06-14T07:40:59;5.95;;;3.50;;
20397;SDS011;10358;49.590;11.030;2023-06-14T07:43:25;9.93;;;3.50;;
20397;SDS011;10358;49.590;11.030;2023-06-14T07:45:51;7.03;;;2.92;;
20397;SDS011;10358;49.590;11.030;2023-06-14T07:48:16;7.50;;;3.47;;
20397;SDS011;10358;49.590;11.030;2023-06-14T07:50:43;6.32;;;2.92;;
20397;SDS011;10358;49.590;11.030;2023-06-14T07:53:09;5.63;;;3.20;;
20397;SDS011;10358;49.590;11.030;2023-06-14T07:55:34;8.75;;;3.58;;
20397;SDS011;10358;49.590;11.030;2023-06-14T07:58:02;5.45;;;3.20;;
20397;SDS011;10358;49.590;11.030;2023-06-14T08:00:28;7.35;;;3.20;;
20397;SDS011;10358;49.590;11.030;2023-06-14T08:02:54;6.47;;;3.08;;
20397;SDS011;10358;49.590;11.030;2023-06-14T08:05:23;6.10;;;3.05;;
20397;SDS011;10358;49.590;11.030;2023-06-14T08:07:53;8.27;;;3.13;;
20397;SDS011;10358;49.590;11.030;2023-06-14T08:10:19;8.18;;;3.42;;
20397;SDS011;10358;49.590;11.030;2023-06-14T08:12:45;4.60;;;3.50;;
20397;SDS011;10358;49.590;11.030;2023-06-14T08:15:10;6.65;;;3.00;;
20397;SDS011;10358;49.590;11.030;2023-06-14T08:17:36;5.60;;;3.00;;
20397;SDS011;10358;49.590;11.030;2023-06-14T08:20:02;7.00;;;3.08;;
20397;SDS011;10358;49.590;11.030;2023-06-14T08:22:29;5.68;;;3.00;;
20397;SDS011;10358;49.590;11.030;2023-06-14T08:24:59;5.53;;;3.50;;
20397;SDS011;10358;49.590;11.030;2023-06-14T08:27:26;9.05;;;3.90;;
20397;SDS011;10358;49.590;11.030;2023-06-14T08:29:51;8.98;;;3.40;;
20397;SDS011;10358;49.590;11.030;2023-06-14T08:32:17;9.35;;;3.55;;
20397;SDS011;10358;49.590;11.030;2023-06-14T08:34:43;6.97;;;3.28;;
20397;SDS011;10358;49.590;11.030;2023-06-14T08:37:08;8.60;;;3.78;;
20397;SDS011;10358;49.590;11.030;2023-06-14T08:39:34;10.77;;;3.53;;
20397;SDS011;10358;49.590;11.030;2023-06-14T08:42:00;8.70;;;3.03;;
20397;SDS011;10358;49.590;11.030;2023-06-14T08:44:28;6.75;;;3.53;;
20397;SDS011;10358;49.590;11.030;2023-06-14T08:46:57;11.05;;;3.63;;
20397;SDS011;10358;49.590;11.030;2023-06-14T08:49:25;5.65;;;3.15;;
20397;SDS011;10358;49.590;11.030;2023-06-14T08:51:57;6.32;;;2.90;;
20397;SDS011;10358;49.590;11.030;2023-06-14T08:54:29;5.60;;;2.92;;
20397;SDS011;10358;49.590;11.030;2023-06-14T08:56:58;4.65;;;2.78;;
20397;SDS011;10358;49.590;11.030;2023-06-14T08:59:25;10.32;;;2.90;;
20397;SDS011;10358;49.590;11.030;2023-06-14T09:01:52;6.72;;;3.15;;
20397;SDS011;10358;49.590;11.030;2023-06-14T09:04:19;7.20;;;2.88;;
20397;SDS011;10358;49.590;11.030;2023-06-14T09:06:49;3.65;;;2.72;;
20397;SDS011;10358;49.590;11.030;2023-06-14T09:09:19;5.63;;;3.30;;
20397;SDS011;10358;49.590;11.030;2023-06-14T09:11:45;4.70;;;3.08;;
20397;SDS011;10358;49.590;11.030;2023-06-14T09:14:11;5.68;;;3.20;;
20397;SDS011;10358;49.590;11.030;2023-06-14T09:16:37;9.07;;;3.33;;
20397;SDS011;10358;49.590;11.030;2023-06-14T09:19:02;5.18;;;2.70;;
20397;SDS011;10358;49.590;11.030;2023-06-14T09:21:28;6.63;;;2.90;;
20397;SDS011;10358;49.590;11.030;2023-06-14T09:23:59;7.18;;;3.20;;
20397;SDS011;10358;49.590;11.030;2023-06-14T09:26:25;4.93;;;2.95;;
20397;SDS011;10358;49.590;11.030;2023-06-14T09:28:52;8.80;;;2.75;;
20397;SDS011;10358;49.590;11.030;2023-06-14T09:31:19;6.93;;;3.13;;
20397;SDS011;10358;49.590;11.030;2023-06-14T09:33:46;3.83;;;3.08;;
20397;SDS011;10358;49.590;11.030;2023-06-14T09:36:15;5.03;;;3.08;;
20397;SDS011;10358;49.590;11.030;2023-06-14T09:38:43;3.67;;;2.55;;
20397;SDS011;10358;49.590;11.030;2023-06-14T09:44:02;12.32;;;3.20;;
20397;SDS011;10358;49.590;11.030;2023-06-14T09:46:30;4.85;;;2.97;;
20397;SDS011;10358;49.590;11.030;2023-06-14T09:48:57;4.93;;;2.97;;
20397;SDS011;10358;49.590;11.030;2023-06-14T09:51:22;6.50;;;3.10;;
20397;SDS011;10358;49.590;11.030;2023-06-14T09:53:49;6.63;;;3.10;;
20397;SDS011;10358;49.590;11.030;2023-06-14T09:59:10;6.72;;;3.42;;
20397;SDS011;10358;49.590;11.030;2023-06-14T10:01:44;6.03;;;3.00;;
20397;SDS011;10358;49.590;11.030;2023-06-14T10:04:10;6.93;;;2.97;;
20397;SDS011;10358;49.590;11.030;2023-06-14T10:06:43;8.20;;;2.72;;
20397;SDS011;10358;49.590;11.030;2023-06-14T10:09:10;6.10;;;2.90;;
20397;SDS011;10358;49.590;11.030;2023-06-14T10:11:37;6.55;;;3.17;;
20397;SDS011;10358;49.590;11.030;2023-06-14T10:14:08;5.55;;;2.83;;
20397;SDS011;10358;49.590;11.030;2023-06-14T10:16:45;3.33;;;2.58;;
20397;SDS011;10358;49.590;11.030;2023-06-14T10:19:28;7.85;;;2.90;;
20397;SDS011;10358;49.590;11.030;2023-06-14T10:22:08;6.18;;;2.90;;
20397;SDS011;10358;49.590;11.030;2023-06-14T10:24:46;5.10;;;2.90;;
20397;SDS011;10358;49.590;11.030;2023-06-14T10:27:15;9.90;;;2.83;;
20397;SDS011;10358;49.590;11.030;2023-06-14T10:32:23;6.15;;;2.92;;
20397;SDS011;10358;49.590;11.030;2023-06-14T10:34:56;7.05;;;3.00;;
20397;SDS011;10358;49.590;11.030;2023-06-14T10:37:22;4.45;;;2.75;;
20397;SDS011;10358;49.590;11.030;2023-06-14T10:39:51;5.50;;;2.80;;
20397;SDS011;10358;49.590;11.030;2023-06-14T10:42:18;8.38;;;2.78;;
20397;SDS011;10358;49.590;11.030;2023-06-14T10:44:50;7.47;;;2.80;;
20397;SDS011;10358;49.590;11.030;2023-06-14T10:47:24;4.78;;;2.80;;
20397;SDS011;10358;49.590;11.030;2023-06-14T10:49:54;8.07;;;3.00;;
20397;SDS011;10358;49.590;11.030;2023-06-14T10:52:43;7.68;;;3.75;;
20397;SDS011;10358;49.590;11.030;2023-06-14T10:57:35;5.65;;;3.05;;
20397;SDS011;10358;49.590;11.030;2023-06-14T11:00:01;4.15;;;2.72;;
20397;SDS011;10358;49.590;11.030;2023-06-14T11:02:46;7.32;;;2.90;;
20397;SDS011;10358;49.590;11.030;2023-06-14T11:05:23;6.05;;;2.90;;
20397;SDS011;10358;49.590;11.030;2023-06-14T11:13:05;4.55;;;2.90;;
20397;SDS011;10358;49.590;11.030;2023-06-14T11:15:34;5.28;;;2.67;;
20397;SDS011;10358;49.590;11.030;2023-06-14T11:18:05;5.95;;;2.55;;
20397;SDS011;10358;49.590;11.030;2023-06-14T11:20:34;4.88;;;2.58;;
20397;SDS011;10358;49.590;11.030;2023-06-14T11:23:03;8.07;;;2.75;;
20397;SDS011;10358;49.590;11.030;2023-06-14T11:25:29;8.68;;;2.70;;
20397;SDS011;10358;49.590;11.030;2023-06-14T11:27:55;7.72;;;3.50;;
20397;SDS011;10358;49.590;11.030;2023-06-14T11:30:22;7.70;;;2.97;;
20397;SDS011;10358;49.590;11.030;2023-06-14T11:32:48;7.65;;;2.80;;
20397;SDS011;10358;49.590;11.030;2023-06-14T11:35:15;7.72;;;2.80;;
20397;SDS011;10358;49.590;11.030;2023-06-14T11:37:42;9.85;;;2.80;;
20397;SDS011;10358;49.590;11.030;2023-06-14T11:40:09;7.43;;;2.85;;
20397;SDS011;10358;49.590;11.030;2023-06-14T11:42:36;4.93;;;2.60;;
20397;SDS011;10358;49.590;11.030;2023-06-14T11:45:03;7.45;;;2.80;;
20397;SDS011;10358;49.590;11.030;2023-06-14T11:47:32;9.23;;;2.80;;
20397;SDS011;10358;49.590;11.030;2023-06-14T11:50:02;5.25;;;2.78;;
20397;SDS011;10358;49.590;11.030;2023-06-14T11:52:30;8.55;;;2.70;;
20397;SDS011;10358;49.590;11.030;2023-06-14T11:54:56;4.70;;;2.65;;
20397;SDS011;10358;49.590;11.030;2023-06-14T11:57:23;5.78;;;2.75;;
20397;SDS011;10358;49.590;11.030;2023-06-14T11:59:49;4.75;;;2.90;;
20397;SDS011;10358;49.590;11.030;2023-06-14T12:02:18;6.95;;;2.97;;
20397;SDS011;10358;49.590;11.030;2023-06-14T12:04:46;4.63;;;2.40;;
20397;SDS011;10358;49.590;11.030;2023-06-14T12:07:16;4.10;;;2.50;;
20397;SDS011;10358;49.590;11.030;2023-06-14T12:12:22;4.15;;;2.63;;
20397;SDS011;10358;49.590;11.030;2023-06-14T12:14:52;6.38;;;2.63;;
20397;SDS011;10358;49.590;11.030;2023-06-14T12:17:21;11.75;;;2.58;;
20397;SDS011;10358;49.590;11.030;2023-06-14T12:19:48;5.53;;;2.70;;
20397;SDS011;10358;49.590;11.030;2023-06-14T12:22:14;6.43;;;2.58;;
20397;SDS011;10358;49.590;11.030;2023-06-14T12:24:44;5.75;;;2.65;;
20397;SDS011;10358;49.590;11.030;2023-06-14T12:27:10;5.22;;;2.63;;
20397;SDS011;10358;49.590;11.030;2023-06-14T12:29:40;3.75;;;2.70;;
20397;SDS011;10358;49.590;11.030;2023-06-14T12:32:08;4.32;;;2.38;;
20397;SDS011;10358;49.590;11.030;2023-06-14T12:34:34;9.25;;;2.85;;
20397;SDS011;10358;49.590;11.030;2023-06-14T12:37:00;8.95;;;2.55;;
20397;SDS011;10358;49.590;11.030;2023-06-14T12:39:28;5.57;;;2.60;;
20397;SDS011;10358;49.590;11.030;2023-06-14T12:41:55;7.07;;;2.50;;
20397;SDS011;10358;49.590;11.030;2023-06-14T12:44:20;10.50;;;2.67;;
20397;SDS011;10358;49.590;11.030;2023-06-14T12:46:46;8.63;;;2.60;;
20397;SDS011;10358;49.590;11.030;2023-06-14T12:49:12;5.65;;;2.67;;
20397;SDS011;10358;49.590;11.030;2023-06-14T12:51:38;4.97;;;2.50;;
20397;SDS011;10358;49.590;11.030;2023-06-14T12:54:04;6.80;;;2.50;;
20397;SDS011;10358;49.590;11.030;2023-06-14T12:56:31;4.82;;;2.30;;
20397;SDS011;10358;49.590;11.030;2023-06-14T12:58:58;3.70;;;2.45;;
20397;SDS011;10358;49.590;11.030;2023-06-14T13:01:24;10.23;;;2.45;;
20397;SDS011;10358;49.590;11.030;2023-06-14T13:03:49;8.95;;;2.90;;
20397;SDS011;10358;49.590;11.030;2023-06-14T13:06:20;7.57;;;2.72;;
20397;SDS011;10358;49.590;11.030;2023-06-14T13:08:46;5.55;;;2.33;;
20397;SDS011;10358;49.590;11.030;2023-06-14T13:11:12;5.47;;;2.60;;
20397;SDS011;10358;49.590;11.030;2023-06-14T13:13:37;6.22;;;2.40;;
20397;SDS011;10358;49.590;11.030;2023-06-14T13:16:03;4.45;;;2.40;;
20397;SDS011;10358;49.590;11.030;2023-06-14T13:18:29;5.28;;;2.67;;
20397;SDS011;10358;49.590;11.030;2023-06-14T13:20:54;3.85;;;2.60;;
20397;SDS011;10358;49.590;11.030;2023-06-14T13:23:20;5.93;;;2.35;;
20397;SDS011;10358;49.590;11.030;2023-06-14T13:25:45;3.80;;;2.28;;
20397;SDS011;10358;49.590;11.030;2023-06-14T13:28:11;5.45;;;2.50;;
20397;SDS011;10358;49.590;11.030;2023-06-14T13:30:37;3.85;;;2.30;;
20397;SDS011;10358;49.590;11.030;2023-06-14T13:33:02;5.40;;;2.47;;
20397;SDS011;10358;49.590;11.030;2023-06-14T13:35:28;4.72;;;2.38;;
20397;SDS011;10358;49.590;11.030;2023-06-14T13:37:54;6.72;;;2.40;;
20397;SDS011;10358;49.590;11.030;2023-06-14T13:40:19;5.60;;;2.47;;
20397;SDS011;10358;49.590;11.030;2023-06-14T13:42:46;4.70;;;2.47;;
20397;SDS011;10358;49.590;11.030;2023-06-14T13:45:12;4.28;;;2.20;;
20397;SDS011;10358;49.590;11.030;2023-06-14T13:47:38;4.55;;;2.45;;
20397;SDS011;10358;49.590;11.030;2023-06-14T13:50:04;6.63;;;2.22;;
20397;SDS011;10358;49.590;11.030;2023-06-14T13:52:30;4.90;;;2.42;;
20397;SDS011;10358;49.590;11.030;2023-06-14T13:54:56;5.32;;;2.67;;
20397;SDS011;10358;49.590;11.030;2023-06-14T13:57:22;7.85;;;2.55;;
20397;SDS011;10358;49.590;11.030;2023-06-14T13:59:48;3.13;;;2.50;;
20397;SDS011;10358;49.590;11.030;2023-06-14T14:02:14;4.03;;;2.30;;
20397;SDS011;10358;49.590;11.030;2023-06-14T14:04:40;9.65;;;2.33;;
20397;SDS011;10358;49.590;11.030;2023-06-14T14:07:06;3.70;;;2.47;;
20397;SDS011;10358;49.590;11.030;2023-06-14T14:09:33;4.22;;;2.10;;
20397;SDS011;10358;49.590;11.030;2023-06-14T14:12:02;6.60;;;2.30;;
20397;SDS011;10358;49.590;11.030;2023-06-14T14:14:29;6.13;;;2.22;;
20397;SDS011;10358;49.590;11.030;2023-06-14T14:16:57;3.65;;;2.28;;
20397;SDS011;10358;49.590;11.030;2023-06-14T14:19:22;10.07;;;2.20;;
20397;SDS011;10358;49.590;11.030;2023-06-14T14:21:48;3.00;;;2.10;;
20397;SDS011;10358;49.590;11.030;2023-06-14T14:24:13;2.20;;;2.00;;
20397;SDS011;10358;49.590;11.030;2023-06-14T14:26:39;6.43;;;2.53;;
20397;SDS011;10358;49.590;11.030;2023-06-14T14:29:05;3.95;;;2.30;;
20397;SDS011;10358;49.590;11.030;2023-06-14T14:31:31;3.40;;;2.00;;
20397;SDS011;10358;49.590;11.030;2023-06-14T14:33:57;6.03;;;2.30;;
20397;SDS011;10358;49.590;11.030;2023-06-14T14:36:23;3.30;;;2.08;;
20397;SDS011;10358;49.590;11.030;2023-06-14T14:38:48;5.22;;;2.40;;
20397;SDS011;10358;49.590;11.030;2023-06-14T14:41:16;3.28;;;2.22;;
20397;SDS011;10358;49.590;11.030;2023-06-14T14:43:42;4.93;;;2.20;;
20397;SDS011;10358;49.590;11.030;2023-06-14T14:46:07;3.38;;;2.22;;
20397;SDS011;10358;49.590;11.030;2023-06-14T14:48:33;4.05;;;2.40;;
20397;SDS011;10358;49.590;11.030;2023-06-14T14:50:58;6.88;;;2.05;;